createdAt,value
2018-06-28T00:00:30.973Z,1.00
2018-06-28T00:03:06.474Z,1.00
2018-06-28T00:05:40.897Z,1.00
2018-06-28T00:10:51.249Z,1.00
2018-06-28T00:15:59.911Z,1.00
2018-06-28T00:18:34.203Z,1.10
2018-06-28T00:21:09.317Z,1.00
2018-06-28T00:23:44.480Z,1.00
2018-06-28T00:26:19.184Z,1.50
2018-06-28T00:28:55.001Z,1.60
2018-06-28T00:31:29.808Z,2.00
2018-06-28T00:34:05.368Z,2.50
2018-06-28T00:36:40.649Z,2.70
2018-06-28T00:39:15.551Z,2.80
2018-06-28T00:41:51.296Z,2.80
2018-06-28T00:49:35.953Z,2.30
2018-06-28T00:52:10.926Z,2.00
2018-06-28T00:54:45.291Z,2.40
2018-06-28T00:57:21.031Z,2.70
2018-06-28T01:00:00.073Z,3.60
2018-06-28T01:02:35.199Z,3.70
2018-06-28T01:05:10.148Z,4.40
2018-06-28T01:07:44.969Z,4.60
2018-06-28T01:10:20.067Z,5.10
2018-06-28T01:12:55.263Z,5.50
2018-06-28T01:15:31.642Z,6.40
2018-06-28T01:18:08.205Z,6.30
2018-06-28T01:23:20.036Z,7.60
2018-06-28T01:25:54.245Z,7.50
2018-06-28T01:28:29.057Z,8.00
2018-06-28T01:31:03.360Z,8.30
2018-06-28T01:33:38.398Z,8.60
2018-06-28T01:36:12.845Z,8.80
2018-06-28T01:38:48.900Z,9.00
2018-06-28T01:41:25.229Z,9.50
2018-06-28T01:43:59.456Z,9.60
2018-06-28T01:46:34.869Z,10.00
2018-06-28T01:49:09.903Z,10.70
2018-06-28T01:51:45.373Z,11.40
2018-06-28T01:54:21.509Z,12.30
2018-06-28T01:56:56.069Z,12.80
2018-06-28T01:59:30.832Z,12.80
2018-06-28T02:02:05.195Z,13.10
2018-06-28T02:04:40.064Z,13.60
2018-06-28T02:07:14.904Z,13.60
2018-06-28T02:09:49.064Z,14.40
2018-06-28T02:12:23.852Z,15.40
2018-06-28T02:14:59.673Z,15.70
2018-06-28T02:17:34.999Z,16.90
2018-06-28T02:20:11.397Z,17.00
2018-06-28T02:22:46.744Z,17.10
2018-06-28T02:25:22.560Z,17.30
2018-06-28T02:27:57.564Z,17.70
2018-06-28T02:30:32.839Z,17.70
2018-06-28T02:33:07.893Z,17.90
2018-06-28T02:35:43.664Z,18.30
2018-06-28T02:38:17.980Z,19.00
2018-06-28T02:40:59.944Z,19.10
2018-06-28T02:43:35.317Z,19.70
2018-06-28T02:46:11.220Z,20.20
2018-06-28T02:48:45.899Z,20.50
2018-06-28T02:51:20.582Z,20.80
2018-06-28T02:53:56.666Z,20.90
2018-06-28T02:56:32.554Z,22.00
2018-06-28T02:59:07.864Z,22.40
2018-06-28T03:01:42.037Z,22.60
2018-06-28T03:04:16.312Z,22.90
2018-06-28T03:06:50.733Z,22.40
2018-06-28T03:09:27.425Z,23.20
2018-06-28T03:12:03.178Z,23.10
2018-06-28T03:14:38.312Z,23.40
2018-06-28T03:17:13.667Z,23.40
2018-06-28T03:19:48.249Z,23.70
2018-06-28T03:22:22.816Z,24.40
2018-06-28T03:24:56.987Z,25.00
2018-06-28T03:27:33.809Z,24.80
2018-06-28T03:30:10.897Z,25.00
2018-06-28T03:32:46.155Z,25.20
2018-06-28T03:35:21.061Z,25.40
2018-06-28T03:37:56.635Z,25.90
2018-06-28T03:40:32.988Z,25.80
2018-06-28T03:43:07.880Z,26.00
2018-06-28T03:45:42.441Z,25.80
2018-06-28T03:48:17.786Z,25.50
2018-06-28T03:50:54.243Z,25.40
2018-06-28T03:53:28.560Z,25.50
2018-06-28T03:56:05.972Z,25.00
2018-06-28T03:58:40.765Z,25.00
2018-06-28T04:01:16.082Z,25.50
2018-06-28T04:03:56.720Z,24.70
2018-06-28T04:06:31.963Z,24.40
2018-06-28T04:09:10.858Z,24.00
2018-06-28T04:11:46.616Z,24.00
2018-06-28T04:14:29.221Z,24.30
2018-06-28T04:17:03.949Z,24.20
2018-06-28T04:19:40.183Z,24.10
2018-06-28T04:22:22.186Z,24.00
2018-06-28T04:24:56.663Z,23.70
2018-06-28T04:27:36.516Z,23.30
2018-06-28T04:30:12.566Z,22.70
2018-06-28T04:32:49.532Z,22.20
2018-06-28T04:35:26.178Z,21.60
2018-06-28T04:38:01.553Z,21.50
2018-06-28T04:40:37.120Z,21.60
2018-06-28T04:43:12.442Z,20.60
2018-06-28T04:45:47.170Z,19.80
2018-06-28T04:48:21.488Z,19.70
2018-06-28T04:50:56.574Z,19.20
2018-06-28T04:53:32.025Z,18.80
2018-06-28T04:56:07.008Z,18.10
2018-06-28T04:58:42.130Z,17.60
2018-06-28T05:01:17.940Z,16.90
2018-06-28T05:03:53.620Z,16.20
2018-06-28T05:06:29.242Z,15.20
2018-06-28T05:09:04.349Z,14.90
2018-06-28T05:11:38.604Z,14.60
2018-06-28T05:14:14.873Z,14.50
2018-06-28T05:16:49.822Z,13.50
2018-06-28T05:19:24.529Z,12.80
2018-06-28T05:21:59.801Z,12.00
2018-06-28T05:24:35.755Z,11.20
2018-06-28T05:27:11.305Z,11.20
2018-06-28T05:29:45.804Z,10.00
2018-06-28T05:32:27.056Z,9.60
2018-06-28T05:35:01.413Z,9.20
2018-06-28T05:37:36.252Z,9.40
2018-06-28T05:40:12.035Z,8.70
2018-06-28T05:42:47.012Z,7.30
2018-06-28T05:45:21.752Z,7.00
2018-06-28T05:47:56.690Z,6.10
2018-06-28T05:50:30.925Z,6.40
2018-06-28T05:53:05.472Z,5.40
2018-06-28T05:55:43.518Z,5.60
2018-06-28T05:58:19.483Z,4.60
2018-06-28T06:00:55.992Z,4.20
2018-06-28T06:03:31.130Z,3.60
2018-06-28T06:06:09.442Z,2.70
2018-06-28T06:08:43.741Z,3.30
2018-06-28T06:11:17.983Z,2.70
2018-06-28T06:13:53.069Z,2.10
2018-06-28T06:16:32.712Z,1.50
2018-06-28T06:19:07.733Z,1.20
2018-06-28T06:21:43.505Z,1.00
2018-06-28T06:24:18.057Z,1.00
2018-06-28T06:26:52.597Z,1.00
2018-06-28T06:29:26.815Z,1.00
2018-06-28T06:32:01.740Z,1.00
2018-06-28T06:34:37.093Z,1.00
2018-06-28T06:37:11.300Z,1.00
2018-06-28T06:39:45.646Z,1.00
2018-06-28T06:42:21.086Z,1.00
2018-06-28T06:44:55.278Z,1.00
2018-06-28T06:47:29.532Z,1.00
2018-06-28T06:50:03.930Z,1.00
2018-06-28T06:52:39.437Z,1.00
2018-06-28T06:55:13.717Z,1.00
2018-06-28T06:57:50.145Z,1.00
2018-06-28T07:00:24.360Z,1.00
2018-06-28T07:03:00.800Z,1.00
2018-06-28T07:08:10.489Z,1.00
2018-06-28T07:10:49.289Z,1.00
2018-06-28T07:13:24.968Z,1.00
2018-06-28T07:16:00.256Z,1.00
2018-06-28T07:18:36.128Z,1.00
2018-06-28T07:21:17.267Z,1.00
2018-06-28T07:23:52.447Z,1.00
2018-06-28T07:26:26.697Z,1.00
2018-06-28T07:29:01.155Z,1.00
2018-06-28T07:31:37.780Z,1.00
2018-06-28T07:34:16.321Z,1.00
2018-06-28T07:36:52.549Z,1.00
2018-06-28T07:39:29.298Z,1.00
2018-06-28T07:42:04.830Z,1.00
2018-06-28T07:44:41.163Z,1.00
2018-06-28T07:49:52.645Z,1.00
2018-06-28T07:52:27.418Z,1.00
2018-06-28T07:55:01.633Z,1.00
2018-06-28T07:57:40.049Z,1.00
2018-06-28T08:00:16.108Z,1.00
2018-06-28T08:02:52.329Z,1.00
2018-06-28T08:05:29.856Z,1.00
2018-06-28T08:08:05.180Z,1.00
2018-06-28T08:10:40.903Z,1.00
2018-06-28T08:15:53.660Z,1.00
2018-06-28T08:18:32.484Z,1.00
2018-06-28T08:21:13.734Z,1.00
2018-06-28T08:23:51.295Z,1.00
2018-06-28T08:26:27.992Z,1.00
2018-06-28T08:29:05.516Z,1.00
2018-06-28T08:31:42.161Z,1.00
2018-06-28T08:34:22.623Z,1.00
2018-06-28T08:36:59.961Z,1.00
2018-06-28T08:39:36.279Z,1.00
2018-06-28T08:42:11.477Z,1.00
2018-06-28T08:44:50.172Z,1.00
2018-06-28T08:47:29.745Z,1.00
2018-06-28T08:50:04.655Z,1.00
2018-06-28T08:52:42.731Z,1.00
2018-06-28T08:55:19.089Z,1.00
2018-06-28T08:57:54.094Z,1.00
2018-06-28T09:00:31.094Z,1.00
2018-06-28T09:03:10.226Z,1.00
2018-06-28T09:05:46.322Z,1.00
2018-06-28T09:08:28.803Z,1.00
2018-06-28T09:11:05.404Z,1.00
2018-06-28T09:13:42.369Z,1.00
2018-06-28T09:16:25.491Z,1.00
2018-06-28T09:19:05.930Z,1.00
2018-06-28T09:21:41.904Z,1.00
2018-06-28T09:24:16.212Z,1.00
2018-06-28T09:26:51.400Z,1.00
2018-06-28T09:29:27.116Z,1.00
2018-06-28T09:32:01.366Z,1.00
2018-06-28T09:34:36.599Z,1.00
2018-06-28T09:37:11.616Z,1.00
2018-06-28T09:39:47.008Z,1.00
2018-06-28T09:42:23.772Z,1.00
2018-06-28T09:44:59.356Z,1.00
2018-06-28T09:47:34.808Z,1.00
2018-06-28T09:50:11.968Z,1.00
2018-06-28T09:52:54.472Z,1.00
2018-06-28T09:55:28.638Z,1.00
2018-06-28T09:58:04.172Z,1.00
2018-06-28T10:00:42.481Z,1.00
2018-06-28T10:03:20.785Z,1.00
2018-06-28T10:05:56.365Z,1.00
2018-06-28T10:08:33.700Z,1.00
2018-06-28T10:11:12.158Z,1.00
2018-06-28T10:13:47.092Z,1.00
2018-06-28T10:16:23.188Z,1.00
2018-06-28T10:18:57.580Z,1.00
2018-06-28T10:21:35.647Z,1.00
2018-06-28T10:24:13.868Z,1.00
2018-06-28T10:26:51.293Z,1.00
2018-06-28T10:29:27.626Z,1.00
2018-06-28T10:32:03.692Z,1.00
2018-06-28T10:34:40.272Z,1.00
2018-06-28T10:37:17.004Z,1.00
2018-06-28T10:39:51.689Z,1.00
2018-06-28T10:42:28.396Z,1.00
2018-06-28T10:45:07.182Z,1.00
2018-06-28T10:47:42.364Z,1.00
2018-06-28T10:50:17.768Z,1.00
2018-06-28T10:52:54.730Z,1.00
2018-06-28T10:55:29.573Z,1.00
2018-06-28T10:58:04.280Z,1.00
2018-06-28T11:03:17.512Z,1.00
2018-06-28T11:05:52.511Z,1.00
2018-06-28T11:08:31.269Z,1.00
2018-06-28T11:11:05.806Z,1.00
2018-06-28T11:13:40.404Z,1.00
2018-06-28T11:16:19.844Z,1.00
2018-06-28T11:18:57.063Z,1.00
2018-06-28T11:21:31.655Z,1.00
2018-06-28T11:24:07.800Z,1.00
2018-06-28T11:29:21.496Z,1.00
2018-06-28T11:31:58.643Z,1.00
2018-06-28T11:34:32.927Z,1.00
2018-06-28T11:37:08.955Z,1.00
2018-06-28T11:39:43.443Z,1.00
2018-06-28T11:44:51.819Z,1.00
2018-06-28T11:47:27.032Z,1.00
2018-06-28T11:50:02.875Z,1.00
2018-06-28T11:52:39.040Z,1.00
2018-06-28T11:55:13.313Z,1.00
2018-06-28T11:57:48.152Z,1.00
2018-06-28T12:00:23.821Z,1.00
2018-06-28T12:02:59.824Z,1.00
2018-06-28T12:05:34.078Z,1.00
2018-06-28T12:08:11.723Z,1.00
2018-06-28T12:10:45.935Z,1.00
2018-06-28T12:13:20.408Z,1.00
2018-06-28T12:16:02.089Z,1.00
2018-06-28T12:18:42.976Z,1.00
2018-06-28T12:21:21.080Z,1.00
2018-06-28T12:23:56.752Z,1.00
2018-06-28T12:26:35.244Z,1.00
2018-06-28T12:29:12.100Z,1.00
2018-06-28T12:31:49.103Z,1.00
2018-06-28T12:34:24.861Z,1.00
2018-06-28T12:36:59.666Z,1.00
2018-06-28T12:39:39.327Z,1.00
2018-06-28T12:42:17.434Z,1.00
2018-06-28T12:44:53.308Z,1.00
2018-06-28T12:47:43.279Z,1.00
2018-06-28T12:50:20.737Z,1.00
2018-06-28T12:53:06.272Z,1.00
2018-06-28T12:56:48.017Z,1.00
2018-06-28T12:59:23.102Z,1.00
2018-06-28T13:01:58.021Z,1.00
2018-06-28T13:04:33.156Z,1.00
2018-06-28T13:07:07.833Z,1.00
2018-06-28T13:09:43.856Z,1.00
2018-06-28T13:12:20.775Z,1.00
2018-06-28T13:14:57.460Z,1.00
2018-06-28T13:17:32.854Z,1.00
2018-06-28T13:20:09.726Z,1.00
2018-06-28T13:22:46.615Z,1.00
2018-06-28T13:25:22.657Z,1.00
2018-06-28T13:27:56.978Z,1.00
2018-06-28T13:30:31.908Z,1.00
2018-06-28T13:33:10.358Z,1.00
2018-06-28T13:38:20.598Z,1.00
2018-06-28T13:40:55.060Z,1.00
2018-06-28T13:43:30.664Z,1.00
2018-06-28T13:48:42.122Z,1.00
2018-06-28T13:51:19.282Z,1.00
2018-06-28T13:53:54.085Z,1.00
2018-06-28T13:56:28.850Z,1.00
2018-06-28T13:59:04.861Z,1.00
2018-06-28T14:01:39.791Z,1.00
2018-06-28T14:04:18.291Z,1.00
2018-06-28T14:06:53.395Z,1.00
2018-06-28T14:09:27.831Z,1.00
2018-06-28T14:12:02.413Z,1.00
2018-06-28T14:14:37.737Z,1.00
2018-06-28T14:17:12.145Z,1.00
2018-06-28T14:22:22.753Z,1.00
2018-06-28T14:24:56.840Z,1.00
2018-06-28T14:27:31.497Z,1.00
2018-06-28T14:30:07.021Z,1.00
2018-06-28T14:32:46.025Z,1.00
2018-06-28T14:35:21.392Z,1.00
2018-06-28T14:37:57.166Z,1.00
2018-06-28T14:40:34.287Z,1.00
2018-06-28T14:43:10.424Z,1.00
2018-06-28T14:45:45.559Z,1.00
2018-06-28T14:48:23.517Z,1.00
2018-06-28T14:50:58.707Z,1.00
2018-06-28T14:53:32.918Z,1.00
2018-06-28T14:56:08.335Z,1.00
2018-06-28T14:58:44.274Z,1.00
2018-06-28T15:01:21.216Z,1.00
2018-06-28T15:03:55.729Z,1.00
2018-06-28T15:06:31.637Z,1.00
2018-06-28T15:09:14.812Z,1.00
2018-06-28T15:11:50.560Z,1.00
2018-06-28T15:14:25.244Z,1.00
2018-06-28T15:16:59.705Z,1.00
2018-06-28T15:19:34.548Z,1.00
2018-06-28T15:22:08.795Z,1.00
2018-06-28T15:24:43.923Z,1.00
2018-06-28T15:27:18.733Z,1.00
2018-06-28T15:29:54.409Z,1.00
2018-06-28T15:32:33.481Z,1.00
2018-06-28T15:35:11.179Z,1.00
2018-06-28T15:37:46.032Z,1.00
2018-06-28T15:40:20.955Z,1.00
2018-06-28T15:42:59.050Z,1.00
2018-06-28T15:45:34.336Z,1.00
2018-06-28T15:48:08.863Z,1.00
2018-06-28T15:50:43.367Z,1.00
2018-06-28T15:53:19.109Z,1.00
2018-06-28T15:55:53.878Z,1.00
2018-06-28T15:58:30.208Z,1.00
2018-06-28T16:01:05.982Z,1.00
2018-06-28T16:03:41.019Z,1.00
2018-06-28T16:06:23.087Z,1.00
2018-06-28T16:09:02.335Z,1.00
2018-06-28T16:11:39.740Z,1.00
2018-06-28T16:16:57.902Z,1.00
2018-06-28T16:19:32.716Z,1.00
2018-06-28T16:22:12.357Z,1.00
2018-06-28T16:24:49.037Z,1.00
2018-06-28T16:27:24.469Z,1.00
2018-06-28T16:32:34.974Z,1.00
2018-06-28T16:35:09.973Z,1.00
2018-06-28T16:37:45.116Z,1.00
2018-06-28T16:40:19.428Z,1.00
2018-06-28T16:42:54.259Z,1.00
2018-06-28T16:45:42.093Z,1.00
2018-06-28T16:48:20.318Z,1.00
2018-06-28T16:50:54.751Z,1.00
2018-06-28T16:53:30.792Z,1.00
2018-06-28T16:56:07.063Z,1.00
2018-06-28T16:58:44.572Z,1.00
2018-06-28T17:01:19.658Z,1.00
2018-06-28T17:04:02.940Z,1.00
2018-06-28T17:06:41.723Z,1.00
2018-06-28T17:09:17.799Z,1.00
2018-06-28T17:11:54.020Z,1.00
2018-06-28T17:14:28.900Z,1.00
2018-06-28T17:17:05.692Z,1.00
2018-06-28T17:19:46.479Z,1.00
2018-06-28T17:22:26.134Z,1.00
2018-06-28T17:25:03.041Z,1.00
2018-06-28T17:27:41.709Z,1.00
2018-06-28T17:30:17.752Z,1.00
2018-06-28T17:33:00.596Z,1.00
2018-06-28T17:35:41.573Z,1.00
2018-06-28T17:38:28.452Z,1.00
2018-06-28T17:41:12.756Z,1.00
2018-06-28T17:43:49.841Z,1.00
2018-06-28T17:46:39.087Z,1.00
2018-06-28T17:49:17.495Z,1.00
2018-06-28T17:51:54.306Z,1.00
2018-06-28T17:54:29.771Z,1.00
2018-06-28T17:57:05.648Z,1.00
2018-06-28T17:59:41.584Z,1.00
2018-06-28T18:02:18.319Z,1.00
2018-06-28T18:04:54.595Z,1.00
2018-06-28T18:07:30.260Z,1.00
2018-06-28T18:10:04.468Z,1.00
2018-06-28T18:12:39.530Z,1.00
2018-06-28T18:15:17.033Z,1.00
2018-06-28T18:17:51.201Z,1.00
2018-06-28T18:20:28.808Z,1.00
2018-06-28T18:23:05.530Z,1.00
2018-06-28T18:25:41.873Z,1.00
2018-06-28T18:28:17.991Z,1.00
2018-06-28T18:30:55.501Z,1.00
2018-06-28T18:33:33.024Z,1.00
2018-06-28T18:36:09.513Z,1.00
2018-06-28T18:38:44.799Z,1.00
2018-06-28T18:41:20.049Z,1.00
2018-06-28T18:43:54.655Z,1.00
2018-06-28T18:46:31.832Z,1.00
2018-06-28T18:49:13.958Z,1.00
2018-06-28T18:51:57.895Z,1.00
2018-06-28T18:54:35.911Z,1.00
2018-06-28T18:57:11.769Z,1.00
2018-06-28T18:59:52.952Z,1.00
2018-06-28T19:02:28.318Z,1.00
2018-06-28T19:05:03.219Z,1.00
2018-06-28T19:07:39.319Z,1.00
2018-06-28T19:10:20.149Z,1.00
2018-06-28T19:12:54.504Z,1.00
2018-06-28T19:15:36.034Z,1.00
2018-06-28T19:18:12.309Z,1.00
2018-06-28T19:20:52.821Z,1.00
2018-06-28T19:23:33.128Z,1.00
2018-06-28T19:26:07.863Z,1.00
2018-06-28T19:28:47.610Z,1.00
2018-06-28T19:31:32.748Z,1.00
2018-06-28T19:34:10.434Z,1.00
2018-06-28T19:36:45.597Z,1.00
2018-06-28T19:39:26.041Z,1.00
2018-06-28T19:42:11.596Z,1.00
2018-06-28T19:44:46.987Z,1.00
2018-06-28T19:47:25.884Z,1.00
2018-06-28T19:50:07.124Z,1.00
2018-06-28T19:52:50.251Z,1.00
2018-06-28T19:55:28.886Z,1.00
2018-06-28T19:58:10.064Z,1.00
2018-06-28T20:00:50.814Z,1.00
2018-06-28T20:03:33.709Z,1.00
2018-06-28T20:06:11.190Z,1.00
2018-06-28T20:08:50.295Z,1.00
2018-06-28T20:11:31.011Z,1.00
2018-06-28T20:14:11.774Z,1.00
2018-06-28T20:16:56.397Z,1.00
2018-06-28T20:20:38.592Z,1.00
2018-06-28T20:23:17.273Z,1.00
2018-06-28T20:25:56.313Z,1.00
2018-06-28T20:28:41.744Z,1.00
2018-06-28T20:31:27.801Z,1.00
2018-06-28T20:34:08.412Z,1.00
2018-06-28T20:36:45.130Z,1.00
2018-06-28T20:39:22.260Z,1.00
2018-06-28T20:42:02.439Z,1.00
2018-06-28T20:44:38.848Z,1.00
2018-06-28T20:47:14.998Z,1.00
2018-06-28T20:49:51.058Z,1.00
2018-06-28T20:52:25.335Z,1.00
2018-06-28T20:54:59.693Z,1.00
2018-06-28T20:57:34.009Z,1.00
2018-06-28T21:00:10.887Z,1.00
2018-06-28T21:02:53.452Z,1.00
2018-06-28T21:05:31.674Z,1.00
2018-06-28T21:08:08.620Z,1.00
2018-06-28T21:10:45.273Z,1.00
2018-06-28T21:13:19.600Z,1.00
2018-06-28T21:15:54.577Z,1.00
2018-06-28T21:18:29.233Z,1.00
2018-06-28T21:21:06.948Z,1.00
2018-06-28T21:23:42.227Z,1.00
2018-06-28T21:26:18.960Z,1.00
2018-06-28T21:28:54.526Z,1.00
2018-06-28T21:31:29.876Z,1.00
2018-06-28T21:34:07.008Z,1.00
2018-06-28T21:36:41.932Z,1.00
2018-06-28T21:39:18.089Z,1.00
2018-06-28T21:41:54.972Z,1.00
2018-06-28T21:44:35.195Z,1.00
2018-06-28T21:47:12.070Z,1.00
2018-06-28T21:49:47.356Z,1.00
2018-06-28T21:52:27.890Z,1.00
2018-06-28T21:55:08.035Z,1.00
2018-06-28T21:57:46.242Z,1.00
2018-06-28T22:00:29.206Z,1.00
2018-06-28T22:03:08.548Z,1.00
2018-06-28T22:05:46.259Z,1.00
2018-06-28T22:08:21.576Z,1.00
2018-06-28T22:10:55.928Z,1.00
2018-06-28T22:13:32.308Z,1.00
2018-06-28T22:16:07.334Z,1.00
2018-06-28T22:18:43.216Z,1.00
2018-06-28T22:21:17.796Z,1.00
2018-06-28T22:23:52.140Z,1.00
2018-06-28T22:26:26.580Z,1.00
2018-06-28T22:31:38.649Z,1.00
2018-06-28T22:34:17.844Z,1.00
2018-06-28T22:36:53.542Z,1.00
2018-06-28T22:39:28.994Z,1.00
2018-06-28T22:42:05.762Z,1.00
2018-06-28T22:44:41.614Z,1.00
2018-06-28T22:47:16.445Z,1.00
2018-06-28T22:49:51.787Z,1.00
2018-06-28T22:52:26.841Z,1.00
2018-06-28T22:55:02.564Z,1.00
2018-06-28T22:57:36.851Z,1.00
2018-06-28T23:00:14.142Z,1.00
2018-06-28T23:02:50.288Z,1.00
2018-06-28T23:05:29.614Z,1.00
2018-06-28T23:08:05.097Z,1.00
2018-06-28T23:10:39.773Z,1.00
2018-06-28T23:13:16.410Z,1.00
2018-06-28T23:15:50.630Z,1.00
2018-06-28T23:18:26.225Z,1.00
2018-06-28T23:21:02.769Z,1.00
2018-06-28T23:23:41.632Z,1.00
2018-06-28T23:28:53.032Z,1.00
2018-06-28T23:31:27.254Z,1.00
2018-06-28T23:34:02.817Z,1.00
2018-06-28T23:36:39.157Z,1.00
2018-06-28T23:39:15.575Z,1.00
2018-06-28T23:41:53.397Z,1.00
2018-06-28T23:44:28.471Z,1.00
2018-06-28T23:47:04.316Z,1.00
2018-06-28T23:49:40.728Z,1.00
2018-06-28T23:52:16.062Z,1.00
2018-06-28T23:54:57.930Z,1.00
2018-06-28T23:57:32.998Z,1.00
